createdAt,value
2022-10-24T00:02:23.951Z,12.99
2022-10-24T00:07:27.010Z,13.43
2022-10-24T00:12:29.952Z,15.84
2022-10-24T00:17:33.367Z,16.96
2022-10-24T00:22:36.323Z,15.74
2022-10-24T00:27:39.267Z,14.47
2022-10-24T00:32:42.400Z,13.71
2022-10-24T00:37:45.878Z,13.14
2022-10-24T00:42:49.160Z,12.68
2022-10-24T00:47:52.094Z,12.27
2022-10-24T00:52:55.504Z,12.90
2022-10-24T00:58:01.790Z,15.46
2022-10-24T01:03:04.751Z,16.81
2022-10-24T01:08:54.896Z,16.16
2022-10-24T01:14:20.085Z,14.48
2022-10-24T01:19:31.842Z,13.59
2022-10-24T01:25:15.044Z,12.88
2022-10-24T01:30:19.560Z,13.53
2022-10-24T01:35:47.954Z,15.87
2022-10-24T01:40:53.726Z,16.13
2022-10-24T01:46:02.728Z,14.40
2022-10-24T01:51:08.007Z,13.31
2022-10-24T01:56:11.056Z,12.67
2022-10-24T02:01:19.883Z,12.18
2022-10-24T02:06:32.481Z,12.88
2022-10-24T02:11:36.126Z,15.50
2022-10-24T02:16:39.008Z,16.45
2022-10-24T02:21:55.652Z,15.00
2022-10-24T02:27:07.115Z,13.78
2022-10-24T02:32:15.793Z,13.04
2022-10-24T02:37:19.495Z,12.49
2022-10-24T02:42:25.544Z,12.96
2022-10-24T02:47:29.715Z,15.42
2022-10-24T02:52:34.668Z,16.44
2022-10-24T02:57:38.461Z,15.02
2022-10-24T03:02:41.408Z,13.81
2022-10-24T03:07:44.297Z,13.04
2022-10-24T03:12:47.505Z,12.43
2022-10-24T03:17:50.551Z,11.96
2022-10-24T03:22:53.833Z,12.61
2022-10-24T03:27:56.922Z,15.05
2022-10-24T03:32:59.860Z,16.36
2022-10-24T03:38:02.896Z,16.34
2022-10-24T03:43:05.819Z,14.76
2022-10-24T03:48:08.981Z,13.77
2022-10-24T03:53:12.213Z,13.11
2022-10-24T03:58:15.110Z,12.59
2022-10-24T04:03:18.031Z,13.19
2022-10-24T04:08:20.997Z,15.72
2022-10-24T04:13:23.944Z,17.03
2022-10-24T04:18:26.984Z,16.39
2022-10-24T04:23:34.476Z,14.77
2022-10-24T04:28:37.436Z,13.79
2022-10-24T04:33:40.512Z,13.16
2022-10-24T04:38:43.459Z,13.58
2022-10-24T04:43:46.362Z,15.95
2022-10-24T04:48:49.396Z,17.14
2022-10-24T04:53:52.518Z,16.11
2022-10-24T04:58:55.565Z,14.67
2022-10-24T05:03:58.559Z,13.80
2022-10-24T05:09:01.549Z,13.18
2022-10-24T05:14:04.509Z,13.68
2022-10-24T05:19:07.590Z,16.08
2022-10-24T05:24:10.555Z,17.23
2022-10-24T05:29:13.490Z,15.96
2022-10-24T05:34:16.429Z,14.54
2022-10-24T05:39:19.536Z,13.62
2022-10-24T05:44:22.715Z,13.85
2022-10-24T05:49:25.961Z,16.06
2022-10-24T05:54:37.535Z,17.24
2022-10-24T05:59:51.787Z,17.50
2022-10-24T06:04:56.439Z,15.77
2022-10-24T06:10:00.248Z,14.50
2022-10-24T06:15:07.706Z,14.70
2022-10-24T06:20:11.469Z,16.76
2022-10-24T06:25:14.542Z,17.73
2022-10-24T06:30:18.145Z,18.00
2022-10-24T06:35:21.004Z,16.35
2022-10-24T06:40:23.948Z,15.09
2022-10-24T06:45:26.958Z,14.32
2022-10-24T06:50:29.887Z,14.76
2022-10-24T06:55:34.287Z,17.03
2022-10-24T07:00:38.347Z,18.20
2022-10-24T07:05:41.572Z,18.63
2022-10-24T07:10:44.696Z,16.92
2022-10-24T07:15:47.625Z,15.56
2022-10-24T07:20:50.579Z,15.71
2022-10-24T07:25:53.447Z,17.72
2022-10-24T07:30:56.392Z,18.76
2022-10-24T07:35:59.307Z,19.34
2022-10-24T07:41:06.597Z,18.35
2022-10-24T07:46:12.021Z,16.75
2022-10-24T07:51:15.163Z,15.90
2022-10-24T07:56:18.404Z,17.23
2022-10-24T08:01:25.544Z,19.00
2022-10-24T08:06:32.195Z,19.85
2022-10-24T08:11:35.148Z,19.72
2022-10-24T08:16:38.550Z,18.02
2022-10-24T08:21:41.468Z,16.87
2022-10-24T08:26:44.444Z,17.04
2022-10-24T08:31:56.457Z,19.03
2022-10-24T08:36:59.492Z,19.98
2022-10-24T08:42:07.157Z,19.84
2022-10-24T08:47:31.802Z,18.13
2022-10-24T08:52:45.265Z,16.98
2022-10-24T08:57:58.145Z,16.50
2022-10-24T09:03:54.867Z,18.41
2022-10-24T09:09:03.806Z,19.99
2022-10-24T09:27:54.898Z,18.09
2022-10-24T09:33:36.018Z,20.24
2022-10-24T09:38:52.939Z,19.82
2022-10-24T09:44:30.926Z,18.42
2022-10-24T09:49:41.370Z,17.73
2022-10-24T09:55:24.971Z,19.59
2022-10-24T10:00:41.852Z,20.80
2022-10-24T10:05:56.370Z,19.33
2022-10-24T10:11:10.127Z,18.18
2022-10-24T10:16:28.433Z,18.52
2022-10-24T10:21:55.828Z,20.66
2022-10-24T10:26:58.991Z,20.02
2022-10-24T10:32:31.290Z,18.86
2022-10-24T10:37:48.501Z,18.13
2022-10-24T10:43:19.146Z,18.41
2022-10-24T10:48:40.890Z,20.74
2022-10-24T10:53:58.815Z,20.84
2022-10-24T10:59:25.810Z,19.37
2022-10-24T11:04:41.442Z,18.52
2022-10-24T11:09:51.738Z,18.00
2022-10-24T11:15:22.392Z,18.66
2022-10-24T11:20:40.062Z,21.05
2022-10-24T11:26:01.084Z,20.94
2022-10-24T11:31:25.912Z,19.57
2022-10-24T11:37:00.127Z,18.80
2022-10-24T11:42:40.072Z,18.59
2022-10-24T11:48:11.816Z,20.87
2022-10-24T11:53:45.926Z,21.77
2022-10-24T11:59:08.190Z,20.31
2022-10-24T12:05:06.778Z,19.29
2022-10-24T12:10:58.726Z,18.60
2022-10-24T12:16:55.656Z,18.10
2022-10-24T12:22:04.645Z,19.15
2022-10-24T12:27:39.573Z,21.32
2022-10-24T12:32:50.011Z,21.40
2022-10-24T12:37:57.262Z,19.93
2022-10-24T12:43:00.086Z,19.09
2022-10-24T12:48:02.899Z,19.53
2022-10-24T12:53:19.850Z,21.55
2022-10-24T12:58:29.691Z,20.85
2022-10-24T13:03:44.632Z,19.65
2022-10-24T13:09:25.764Z,18.93
2022-10-24T13:14:56.680Z,18.39
2022-10-24T13:20:19.339Z,19.15
2022-10-24T13:25:37.622Z,21.42
2022-10-24T13:30:41.499Z,21.55
2022-10-24T13:35:45.377Z,20.12
2022-10-24T13:40:48.452Z,19.26
2022-10-24T13:46:12.916Z,18.66
2022-10-24T13:51:35.454Z,18.17
2022-10-24T13:56:41.967Z,19.04
2022-10-24T14:01:44.897Z,21.25
2022-10-24T14:06:47.869Z,22.26
2022-10-24T14:11:51.142Z,21.44
2022-10-24T14:17:18.187Z,20.13
2022-10-24T14:22:35.484Z,19.29
2022-10-24T14:27:42.026Z,18.72
2022-10-24T14:32:45.031Z,19.22
2022-10-24T14:37:48.904Z,21.36
2022-10-24T14:42:53.119Z,22.28
2022-10-24T14:47:58.735Z,21.13
2022-10-24T14:53:01.722Z,19.88
2022-10-24T14:58:04.618Z,19.10
2022-10-24T15:03:10.026Z,18.48
2022-10-24T15:08:28.153Z,18.95
2022-10-24T15:13:34.095Z,21.09
2022-10-24T15:18:43.705Z,22.04
2022-10-24T15:23:54.905Z,21.16
2022-10-24T15:29:05.222Z,19.67
2022-10-24T15:34:10.601Z,18.76
2022-10-24T15:39:19.001Z,18.05
2022-10-24T15:44:31.360Z,18.56
2022-10-24T15:49:35.137Z,20.73
2022-10-24T15:54:38.039Z,21.57
2022-10-24T15:59:41.123Z,20.31
2022-10-24T16:04:44.874Z,19.00
2022-10-24T16:09:47.769Z,18.14
2022-10-24T16:14:50.646Z,18.43
2022-10-24T16:19:53.531Z,20.53
2022-10-24T16:24:56.405Z,21.57
2022-10-24T16:29:59.370Z,21.41
2022-10-24T16:35:02.316Z,19.70
2022-10-24T16:40:07.239Z,18.56
2022-10-24T16:45:11.266Z,17.76
2022-10-24T16:50:24.127Z,18.12
2022-10-24T16:55:28.235Z,20.29
2022-10-24T17:00:31.305Z,20.97
2022-10-24T17:05:34.428Z,19.50
2022-10-24T17:10:38.296Z,18.26
2022-10-24T17:15:41.477Z,17.47
2022-10-24T17:20:45.422Z,17.80
2022-10-24T17:25:48.654Z,19.94
2022-10-24T17:35:59.832Z,20.02
2022-10-24T17:41:19.629Z,18.50
2022-10-24T17:46:22.972Z,17.51
2022-10-24T17:51:27.369Z,17.83
2022-10-24T17:56:30.230Z,19.89
2022-10-24T18:01:33.529Z,20.90
2022-10-24T18:06:40.647Z,21.42
2022-10-24T18:11:46.091Z,20.40
2022-10-24T18:16:49.071Z,18.82
2022-10-24T18:21:52.001Z,17.81
2022-10-24T18:26:54.898Z,17.09
2022-10-24T18:31:57.804Z,17.47
2022-10-24T18:37:00.705Z,19.63
2022-10-24T18:42:42.346Z,20.39
2022-10-24T18:47:45.709Z,18.75
2022-10-24T18:53:05.018Z,17.57
2022-10-24T18:58:13.794Z,16.79
2022-10-24T19:03:33.581Z,17.20
2022-10-24T19:08:36.695Z,19.41
2022-10-24T19:13:40.486Z,19.91
2022-10-24T19:18:53.043Z,18.36
2022-10-24T19:23:55.986Z,17.21
2022-10-24T19:29:01.094Z,16.48
2022-10-24T19:34:06.539Z,15.91
2022-10-24T19:39:09.913Z,16.45
2022-10-24T19:44:15.089Z,18.70
2022-10-24T19:49:18.025Z,19.54
2022-10-24T19:54:20.932Z,18.12
2022-10-24T19:59:25.916Z,16.93
2022-10-24T20:04:30.406Z,16.21
2022-10-24T20:09:33.424Z,16.56
2022-10-24T20:14:36.328Z,18.78
2022-10-24T20:19:39.285Z,19.73
2022-10-24T20:24:42.223Z,18.52
2022-10-24T20:29:45.157Z,17.24
2022-10-24T20:34:48.059Z,16.47
2022-10-24T20:39:50.944Z,15.88
2022-10-24T20:44:53.846Z,16.39
2022-10-24T20:49:56.727Z,18.66
2022-10-24T20:54:59.611Z,19.84
2022-10-24T21:00:03.183Z,19.57
2022-10-24T21:05:07.303Z,17.92
2022-10-24T21:10:10.195Z,16.93
2022-10-24T21:15:13.290Z,16.25
2022-10-24T21:20:16.429Z,16.73
2022-10-24T21:25:19.396Z,18.98
2022-10-24T21:30:22.301Z,20.12
2022-10-24T21:35:25.203Z,19.48
2022-10-24T21:40:28.092Z,17.93
2022-10-24T21:45:31.481Z,16.94
2022-10-24T21:50:34.432Z,17.58
2022-10-24T21:55:37.362Z,19.57
2022-10-24T22:00:40.536Z,20.51
2022-10-24T22:05:57.779Z,19.92
2022-10-24T22:11:06.788Z,18.25
2022-10-24T22:16:12.923Z,17.27
2022-10-24T22:21:25.563Z,17.55
2022-10-24T22:26:29.771Z,19.70
2022-10-24T22:31:33.803Z,20.48
2022-10-24T22:36:48.693Z,19.05
2022-10-24T22:41:52.407Z,17.70
2022-10-24T22:47:10.621Z,16.91
2022-10-24T22:52:13.972Z,17.42
2022-10-24T22:57:17.159Z,19.55
2022-10-24T23:02:36.778Z,20.52
2022-10-24T23:08:01.274Z,20.57
2022-10-24T23:13:04.547Z,18.79
2022-10-24T23:18:11.171Z,17.60
2022-10-24T23:23:28.044Z,17.81
2022-10-24T23:28:49.664Z,19.85
2022-10-24T23:33:52.976Z,20.81
2022-10-24T23:38:56.272Z,20.65
2022-10-24T23:43:59.570Z,18.88
2022-10-24T23:49:17.227Z,17.74
2022-10-24T23:54:26.456Z,19.15
2022-10-24T23:59:29.325Z,20.58
